createdAt,value
2023-03-21T00:00:57.729Z,5.57
2023-03-21T00:03:26.584Z,5.30
2023-03-21T00:05:55.502Z,5.75
2023-03-21T00:08:24.462Z,5.78
2023-03-21T00:10:57.364Z,5.50
2023-03-21T00:13:26.554Z,5.95
2023-03-21T00:18:46.561Z,5.90
2023-03-21T00:24:05.040Z,4.80
2023-03-21T00:26:33.481Z,4.93
2023-03-21T00:29:01.926Z,4.90
2023-03-21T00:31:31.753Z,6.03
2023-03-21T00:34:00.227Z,5.28
2023-03-21T00:36:28.793Z,5.90
2023-03-21T00:38:57.452Z,5.60
2023-03-21T00:41:40.986Z,5.78
2023-03-21T00:44:11.633Z,5.10
2023-03-21T00:46:54.486Z,5.50
2023-03-21T00:49:25.956Z,5.10
2023-03-21T00:51:55.283Z,5.50
2023-03-21T00:54:26.052Z,5.70
2023-03-21T00:56:54.533Z,7.05
2023-03-21T00:59:23.024Z,6.65
2023-03-21T01:01:53.709Z,6.40
2023-03-21T01:04:26.595Z,7.55
2023-03-21T01:06:55.553Z,7.30
2023-03-21T01:09:25.473Z,7.20
2023-03-21T01:11:54.171Z,7.07
2023-03-21T01:14:24.158Z,7.32
2023-03-21T01:16:54.584Z,6.93
2023-03-21T01:19:40.591Z,6.93
2023-03-21T01:22:13.200Z,7.03
2023-03-21T01:24:52.503Z,6.65
2023-03-21T01:27:23.831Z,6.60
2023-03-21T01:29:52.261Z,7.10
2023-03-21T01:32:22.190Z,7.40
2023-03-21T01:34:50.749Z,7.63
2023-03-21T01:37:20.017Z,8.25
2023-03-21T01:39:48.538Z,7.25
2023-03-21T01:42:17.117Z,7.65
2023-03-21T01:44:55.777Z,8.07
2023-03-21T01:47:25.615Z,7.80
2023-03-21T01:49:56.650Z,6.88
2023-03-21T01:52:36.596Z,7.55
2023-03-21T01:55:07.020Z,6.47
2023-03-21T01:57:49.440Z,6.68
2023-03-21T02:00:26.050Z,7.03
2023-03-21T02:03:06.107Z,7.03
2023-03-21T02:05:43.017Z,7.47
2023-03-21T02:08:13.250Z,7.80
2023-03-21T02:10:42.958Z,7.88
2023-03-21T02:13:11.644Z,8.50
2023-03-21T02:15:40.873Z,9.70
2023-03-21T02:18:16.054Z,8.98
2023-03-21T02:21:17.425Z,9.02
2023-03-21T02:23:57.735Z,9.70
2023-03-21T02:26:45.133Z,9.05
2023-03-21T02:29:24.274Z,8.32
2023-03-21T02:32:06.003Z,9.18
2023-03-21T02:35:00.750Z,9.40
2023-03-21T02:37:38.409Z,9.85
2023-03-21T02:40:12.228Z,10.02
2023-03-21T02:42:54.708Z,10.35
2023-03-21T02:45:28.300Z,8.52
2023-03-21T02:47:58.656Z,8.82
2023-03-21T02:50:29.982Z,8.95
2023-03-21T02:53:00.906Z,9.18
2023-03-21T02:55:31.582Z,7.95
2023-03-21T02:58:11.695Z,9.30
2023-03-21T03:00:42.931Z,7.68
2023-03-21T03:03:20.727Z,8.05
2023-03-21T03:05:58.759Z,7.47
2023-03-21T03:08:43.192Z,7.93
2023-03-21T03:11:22.492Z,8.07
2023-03-21T03:14:21.404Z,7.50
2023-03-21T03:17:00.623Z,7.68
2023-03-21T03:19:32.749Z,7.88
2023-03-21T03:22:08.451Z,8.10
2023-03-21T03:24:40.597Z,8.52
2023-03-21T03:27:10.730Z,7.32
2023-03-21T03:29:40.878Z,7.88
2023-03-21T03:32:12.305Z,8.60
2023-03-21T03:34:42.345Z,8.32
2023-03-21T03:37:12.989Z,8.65
2023-03-21T03:39:45.826Z,8.13
2023-03-21T03:42:27.718Z,8.00
2023-03-21T03:44:57.555Z,6.95
2023-03-21T03:47:33.676Z,7.88
2023-03-21T03:50:09.875Z,8.27
2023-03-21T03:52:50.076Z,7.47
2023-03-21T03:55:27.099Z,8.63
2023-03-21T03:57:56.092Z,8.15
2023-03-21T04:00:25.574Z,8.55
2023-03-21T04:02:54.048Z,7.60
2023-03-21T04:05:22.604Z,8.60
2023-03-21T04:07:51.306Z,8.38
2023-03-21T04:10:20.144Z,8.50
2023-03-21T04:12:50.039Z,8.20
2023-03-21T04:15:19.132Z,8.00
2023-03-21T04:17:47.932Z,7.88
2023-03-21T04:20:23.789Z,7.97
2023-03-21T04:22:58.716Z,7.60
2023-03-21T04:25:33.769Z,8.07
2023-03-21T04:28:04.205Z,7.40
2023-03-21T04:30:34.203Z,8.73
2023-03-21T04:33:02.659Z,8.13
2023-03-21T04:35:31.216Z,7.63
2023-03-21T04:37:59.677Z,7.50
2023-03-21T04:40:28.340Z,7.95
2023-03-21T04:42:56.917Z,8.02
2023-03-21T04:45:26.747Z,8.07
2023-03-21T04:47:55.987Z,8.38
2023-03-21T04:50:24.452Z,8.23
2023-03-21T04:52:52.912Z,8.77
2023-03-21T04:55:21.699Z,9.52
2023-03-21T04:57:50.322Z,7.97
2023-03-21T05:00:19.069Z,8.02
2023-03-21T05:02:48.876Z,7.97
2023-03-21T05:05:17.258Z,7.88
2023-03-21T05:07:45.691Z,7.53
2023-03-21T05:10:14.798Z,8.50
2023-03-21T05:12:43.399Z,8.65
2023-03-21T05:15:12.030Z,8.05
2023-03-21T05:17:42.732Z,8.02
2023-03-21T05:20:16.091Z,8.77
2023-03-21T05:22:46.282Z,8.98
2023-03-21T05:25:18.085Z,8.45
2023-03-21T05:27:54.171Z,8.95
2023-03-21T05:30:22.758Z,8.05
2023-03-21T05:32:51.214Z,8.60
2023-03-21T05:35:21.108Z,7.65
2023-03-21T05:37:49.621Z,9.23
2023-03-21T05:40:18.088Z,8.18
2023-03-21T05:42:47.529Z,8.20
2023-03-21T05:45:16.604Z,7.53
2023-03-21T05:47:45.233Z,7.95
2023-03-21T05:50:14.591Z,8.98
2023-03-21T05:52:44.432Z,8.10
2023-03-21T05:55:12.896Z,8.65
2023-03-21T05:57:41.344Z,7.95
2023-03-21T06:00:10.668Z,8.77
2023-03-21T06:02:39.965Z,8.13
2023-03-21T06:05:08.815Z,8.68
2023-03-21T06:07:38.272Z,8.02
2023-03-21T06:10:08.909Z,8.00
2023-03-21T06:12:37.469Z,8.23
2023-03-21T06:15:06.132Z,8.25
2023-03-21T06:17:34.838Z,8.35
2023-03-21T06:20:05.075Z,7.90
2023-03-21T06:22:33.733Z,8.15
2023-03-21T06:25:02.200Z,7.57
2023-03-21T06:27:32.107Z,7.45
2023-03-21T06:30:00.567Z,8.18
2023-03-21T06:32:29.079Z,7.95
2023-03-21T06:34:57.520Z,7.32
2023-03-21T06:37:26.895Z,7.82
2023-03-21T06:39:55.758Z,7.50
2023-03-21T06:42:24.293Z,7.72
2023-03-21T06:44:54.119Z,8.10
2023-03-21T06:47:22.591Z,7.75
2023-03-21T06:49:51.586Z,7.95
2023-03-21T06:52:20.128Z,8.15
2023-03-21T06:54:48.590Z,7.68
2023-03-21T06:57:18.070Z,8.55
2023-03-21T06:59:46.675Z,7.70
2023-03-21T07:02:16.686Z,7.78
2023-03-21T07:04:45.206Z,8.10
2023-03-21T07:07:13.618Z,8.02
2023-03-21T07:09:42.554Z,8.00
2023-03-21T07:12:11.199Z,8.75
2023-03-21T07:14:39.637Z,8.48
2023-03-21T07:17:08.038Z,7.95
2023-03-21T07:19:37.912Z,8.77
2023-03-21T07:22:06.387Z,8.05
2023-03-21T07:24:34.842Z,8.27
2023-03-21T07:27:03.326Z,8.35
2023-03-21T07:29:31.936Z,8.27
2023-03-21T07:32:00.413Z,8.32
2023-03-21T07:34:33.296Z,8.13
2023-03-21T07:37:03.115Z,7.30
2023-03-21T07:39:33.063Z,7.95
2023-03-21T07:42:02.027Z,7.53
2023-03-21T07:44:30.680Z,7.50
2023-03-21T07:46:59.081Z,7.35
2023-03-21T07:49:27.958Z,6.90
2023-03-21T07:51:56.399Z,7.63
2023-03-21T07:54:28.606Z,6.88
2023-03-21T07:56:57.089Z,6.70
2023-03-21T07:59:26.078Z,6.80
2023-03-21T08:01:54.717Z,6.93
2023-03-21T08:04:23.697Z,6.82
2023-03-21T08:06:52.492Z,6.55
2023-03-21T08:09:21.152Z,6.38
2023-03-21T08:11:51.143Z,5.82
2023-03-21T08:14:19.689Z,6.47
2023-03-21T08:16:48.132Z,6.35
2023-03-21T08:19:18.759Z,6.45
2023-03-21T08:21:47.384Z,6.30
2023-03-21T08:24:15.858Z,7.10
2023-03-21T08:26:46.062Z,6.75
2023-03-21T08:29:16.193Z,7.10
2023-03-21T08:31:44.633Z,7.40
2023-03-21T08:34:13.747Z,7.15
2023-03-21T08:36:42.206Z,7.78
2023-03-21T08:39:10.671Z,7.25
2023-03-21T08:41:39.805Z,7.13
2023-03-21T08:44:09.764Z,8.25
2023-03-21T08:46:39.615Z,7.50
2023-03-21T08:49:08.086Z,8.40
2023-03-21T08:51:37.692Z,7.95
2023-03-21T08:54:06.667Z,7.75
2023-03-21T08:56:37.330Z,8.13
2023-03-21T08:59:06.199Z,8.52
2023-03-21T09:01:34.733Z,7.80
2023-03-21T09:04:08.185Z,8.40
2023-03-21T09:06:36.744Z,7.13
2023-03-21T09:09:07.857Z,8.07
2023-03-21T09:11:36.501Z,8.70
2023-03-21T09:14:04.931Z,9.32
2023-03-21T09:16:33.613Z,8.75
2023-03-21T09:19:03.390Z,9.25
2023-03-21T09:21:33.758Z,8.68
2023-03-21T09:24:02.939Z,8.95
2023-03-21T09:26:31.657Z,8.75
2023-03-21T09:29:00.807Z,9.10
2023-03-21T09:31:29.836Z,9.27
2023-03-21T09:33:58.982Z,8.68
2023-03-21T09:36:28.287Z,8.77
2023-03-21T09:38:59.778Z,8.57
2023-03-21T09:41:33.972Z,9.70
2023-03-21T09:44:09.117Z,9.07
2023-03-21T09:46:43.417Z,8.70
2023-03-21T09:49:15.784Z,9.07
2023-03-21T09:51:47.953Z,9.32
2023-03-21T09:54:22.678Z,10.32
2023-03-21T09:56:52.964Z,10.45
2023-03-21T09:59:25.117Z,10.48
2023-03-21T10:01:55.335Z,10.52
2023-03-21T10:04:25.192Z,10.68
2023-03-21T10:06:57.086Z,10.90
2023-03-21T10:09:28.347Z,10.80
2023-03-21T10:11:59.173Z,10.52
2023-03-21T10:14:30.026Z,10.40
2023-03-21T10:17:00.396Z,9.75
2023-03-21T10:19:29.267Z,10.45
2023-03-21T10:22:03.001Z,9.85
2023-03-21T10:24:35.056Z,10.20
2023-03-21T10:27:04.513Z,10.52
2023-03-21T10:29:37.192Z,8.70
2023-03-21T10:32:05.839Z,9.98
2023-03-21T10:34:38.523Z,9.88
2023-03-21T10:37:07.356Z,9.00
2023-03-21T10:39:38.795Z,9.52
2023-03-21T10:42:07.415Z,9.07
2023-03-21T10:44:36.566Z,8.63
2023-03-21T10:47:07.771Z,10.70
2023-03-21T10:49:56.417Z,9.18
2023-03-21T10:52:29.148Z,10.02
2023-03-21T10:55:09.621Z,9.82
2023-03-21T10:57:38.932Z,9.77
2023-03-21T11:00:17.089Z,9.98
2023-03-21T11:02:49.743Z,10.35
2023-03-21T11:05:22.548Z,10.13
2023-03-21T11:07:57.631Z,10.60
2023-03-21T11:10:31.236Z,8.63
2023-03-21T11:13:00.076Z,9.60
2023-03-21T11:15:30.709Z,9.00
2023-03-21T11:17:59.547Z,9.35
2023-03-21T11:20:28.590Z,8.95
2023-03-21T11:22:57.788Z,9.40
2023-03-21T11:25:29.383Z,10.10
2023-03-21T11:27:59.265Z,7.72
2023-03-21T11:30:28.750Z,8.02
2023-03-21T11:32:58.328Z,8.38
2023-03-21T11:35:29.982Z,8.43
2023-03-21T11:37:58.602Z,7.90
2023-03-21T11:40:28.331Z,7.32
2023-03-21T11:42:57.716Z,6.85
2023-03-21T11:45:28.709Z,6.93
2023-03-21T11:47:58.148Z,6.47
2023-03-21T11:50:29.472Z,6.30
2023-03-21T11:53:04.116Z,6.35
2023-03-21T11:55:41.781Z,5.88
2023-03-21T11:58:24.579Z,6.07
2023-03-21T12:00:57.391Z,6.15
2023-03-21T12:03:49.078Z,5.57
2023-03-21T12:06:24.487Z,5.80
2023-03-21T12:08:56.024Z,5.13
2023-03-21T12:11:30.486Z,5.18
2023-03-21T12:14:02.663Z,6.05
2023-03-21T12:16:41.534Z,5.43
2023-03-21T12:19:27.155Z,5.93
2023-03-21T12:21:59.684Z,5.20
2023-03-21T12:24:33.239Z,5.00
2023-03-21T12:27:04.879Z,4.30
2023-03-21T12:29:42.404Z,4.90
2023-03-21T12:32:19.552Z,4.93
2023-03-21T12:34:58.482Z,5.07
2023-03-21T12:37:30.663Z,4.97
2023-03-21T12:40:07.379Z,5.40
2023-03-21T12:42:49.925Z,5.68
2023-03-21T12:45:20.573Z,5.47
2023-03-21T12:47:52.021Z,5.20
2023-03-21T12:50:22.997Z,6.07
2023-03-21T12:52:53.121Z,5.80
2023-03-21T12:55:23.320Z,5.55
2023-03-21T12:57:57.753Z,5.78
2023-03-21T13:00:28.264Z,5.28
2023-03-21T13:03:00.688Z,5.43
2023-03-21T13:05:30.606Z,5.30
2023-03-21T13:08:01.265Z,5.53
2023-03-21T13:10:29.745Z,5.65
2023-03-21T13:13:03.474Z,5.95
2023-03-21T13:15:38.906Z,5.30
2023-03-21T13:18:14.270Z,5.18
2023-03-21T13:20:45.882Z,4.75
2023-03-21T13:23:14.631Z,4.70
2023-03-21T13:25:48.813Z,4.97
2023-03-21T13:28:21.294Z,5.07
2023-03-21T13:30:50.250Z,4.60
2023-03-21T13:33:24.786Z,4.80
2023-03-21T13:36:05.649Z,4.88
2023-03-21T13:38:35.273Z,4.20
2023-03-21T13:41:07.380Z,4.13
2023-03-21T13:43:53.546Z,4.25
2023-03-21T13:46:52.206Z,4.65
2023-03-21T13:49:29.241Z,4.20
2023-03-21T13:51:59.187Z,4.28
2023-03-21T13:54:41.588Z,4.45
2023-03-21T13:57:22.785Z,4.47
2023-03-21T13:59:51.261Z,4.93
2023-03-21T14:02:24.497Z,4.35
2023-03-21T14:05:06.644Z,4.55
2023-03-21T14:07:36.847Z,5.05
2023-03-21T14:10:07.598Z,4.63
2023-03-21T14:12:40.110Z,4.72
2023-03-21T14:15:16.742Z,4.30
2023-03-21T14:17:51.663Z,5.05
2023-03-21T14:20:24.049Z,4.50
2023-03-21T14:22:52.761Z,4.47
2023-03-21T14:25:24.367Z,4.57
2023-03-21T14:27:55.791Z,5.03
2023-03-21T14:30:26.611Z,4.93
2023-03-21T14:32:56.690Z,4.55
2023-03-21T14:35:27.937Z,4.85
2023-03-21T14:37:57.227Z,4.75
2023-03-21T14:40:26.701Z,4.75
2023-03-21T14:42:56.056Z,4.68
2023-03-21T14:45:25.706Z,4.80
2023-03-21T14:47:58.744Z,4.50
2023-03-21T14:50:31.664Z,4.88
2023-03-21T14:53:00.919Z,4.80
2023-03-21T14:55:29.488Z,4.97
2023-03-21T14:57:58.215Z,4.47
2023-03-21T15:00:28.617Z,4.22
2023-03-21T15:02:59.740Z,4.53
2023-03-21T15:05:31.884Z,4.35
2023-03-21T15:08:01.330Z,4.40
2023-03-21T15:10:31.833Z,4.57
2023-03-21T15:13:01.614Z,4.53
2023-03-21T15:15:30.762Z,4.70
2023-03-21T15:18:02.750Z,4.68
2023-03-21T15:20:34.363Z,4.30
2023-03-21T15:23:04.740Z,4.03
2023-03-21T15:25:36.051Z,4.63
2023-03-21T15:28:05.569Z,4.68
2023-03-21T15:30:35.315Z,4.45
2023-03-21T15:33:08.438Z,4.70
2023-03-21T15:35:40.580Z,3.88
2023-03-21T15:38:09.570Z,4.20
2023-03-21T15:40:38.525Z,3.55
2023-03-21T15:43:07.766Z,4.05
2023-03-21T15:45:36.471Z,3.97
2023-03-21T15:48:09.060Z,4.15
2023-03-21T15:50:40.606Z,3.83
2023-03-21T15:53:13.798Z,3.85
2023-03-21T15:55:48.139Z,4.07
2023-03-21T15:58:18.810Z,4.22
2023-03-21T16:00:54.303Z,4.28
2023-03-21T16:03:25.423Z,4.30
2023-03-21T16:06:05.531Z,4.32
2023-03-21T16:08:37.542Z,4.10
2023-03-21T16:11:10.400Z,4.63
2023-03-21T16:13:38.848Z,4.10
2023-03-21T16:16:07.818Z,4.38
2023-03-21T16:18:36.331Z,4.60
2023-03-21T16:21:06.534Z,4.13
2023-03-21T16:23:34.981Z,4.50
2023-03-21T16:26:05.157Z,4.57
2023-03-21T16:28:34.155Z,5.07
2023-03-21T16:31:02.562Z,4.43
2023-03-21T16:33:31.033Z,5.05
2023-03-21T16:36:00.867Z,4.55
2023-03-21T16:38:30.845Z,4.57
2023-03-21T16:41:00.901Z,5.30
2023-03-21T16:43:29.348Z,5.07
2023-03-21T16:45:57.906Z,4.78
2023-03-21T16:48:26.427Z,5.00
2023-03-21T16:50:54.899Z,4.50
2023-03-21T16:53:23.334Z,4.82
2023-03-21T16:55:54.065Z,4.60
2023-03-21T16:58:22.546Z,5.30
2023-03-21T17:00:50.986Z,4.95
2023-03-21T17:03:19.950Z,4.78
2023-03-21T17:05:48.441Z,5.20
2023-03-21T17:08:17.698Z,4.60
2023-03-21T17:10:46.517Z,4.47
2023-03-21T17:13:16.344Z,4.82
2023-03-21T17:15:44.738Z,5.10
2023-03-21T17:18:14.007Z,4.80
2023-03-21T17:20:42.443Z,4.88
2023-03-21T17:23:11.015Z,5.28
2023-03-21T17:25:39.481Z,4.93
2023-03-21T17:28:07.946Z,4.93
2023-03-21T17:30:40.028Z,5.22
2023-03-21T17:33:08.943Z,5.43
2023-03-21T17:35:37.470Z,5.35
2023-03-21T17:38:06.233Z,4.95
2023-03-21T17:40:35.966Z,4.82
2023-03-21T17:43:04.621Z,5.00
2023-03-21T17:45:33.132Z,5.38
2023-03-21T17:48:02.968Z,5.05
2023-03-21T17:50:37.085Z,4.53
2023-03-21T17:53:06.040Z,4.63
2023-03-21T17:55:35.405Z,4.75
2023-03-21T17:58:05.585Z,4.65
2023-03-21T18:00:34.365Z,5.38
2023-03-21T18:03:04.181Z,4.95
2023-03-21T18:05:33.726Z,4.75
2023-03-21T18:08:10.373Z,5.70
2023-03-21T18:10:39.395Z,5.68
2023-03-21T18:13:08.121Z,5.00
2023-03-21T18:15:38.271Z,5.40
2023-03-21T18:18:08.328Z,5.65
2023-03-21T18:20:54.254Z,5.38
2023-03-21T18:23:23.588Z,5.63
2023-03-21T18:25:53.000Z,5.07
2023-03-21T18:28:21.858Z,5.43
2023-03-21T18:31:07.800Z,5.15
2023-03-21T18:33:40.626Z,5.20
2023-03-21T18:36:09.528Z,4.82
2023-03-21T18:38:38.536Z,5.00
2023-03-21T18:41:07.649Z,4.72
2023-03-21T18:46:24.938Z,5.22
2023-03-21T18:48:55.216Z,4.63
2023-03-21T18:51:24.252Z,4.60
2023-03-21T18:53:52.760Z,4.78
2023-03-21T18:57:19.594Z,4.88
2023-03-21T18:59:10.032Z,4.80
2023-03-21T19:01:38.820Z,4.38
2023-03-21T19:04:21.378Z,4.40
2023-03-21T19:06:53.037Z,5.10
2023-03-21T19:09:29.341Z,4.05
2023-03-21T19:12:00.767Z,4.47
2023-03-21T19:14:29.513Z,4.32
2023-03-21T19:19:48.932Z,4.80
2023-03-21T19:22:17.784Z,5.35
2023-03-21T19:24:47.169Z,5.30
2023-03-21T19:27:15.768Z,4.22
2023-03-21T19:29:56.963Z,4.90
2023-03-21T19:32:31.542Z,4.82
2023-03-21T19:35:01.603Z,4.53
2023-03-21T19:37:30.360Z,5.75
2023-03-21T19:39:58.862Z,5.30
2023-03-21T19:42:29.260Z,5.45
2023-03-21T19:44:59.048Z,5.43
2023-03-21T19:47:27.560Z,5.47
2023-03-21T19:50:42.096Z,5.40
2023-03-21T19:52:46.215Z,5.32
2023-03-21T19:55:15.482Z,5.15
2023-03-21T19:57:44.050Z,5.30
2023-03-21T20:00:13.059Z,5.28
2023-03-21T20:02:43.582Z,5.32
2023-03-21T20:05:12.029Z,5.03
2023-03-21T20:07:40.596Z,5.00
2023-03-21T20:10:11.784Z,5.05
2023-03-21T20:12:40.528Z,5.15
2023-03-21T20:15:17.799Z,5.53
2023-03-21T20:17:48.176Z,5.50
2023-03-21T20:20:17.630Z,5.20
2023-03-21T20:23:07.299Z,5.20
2023-03-21T20:25:38.162Z,5.57
2023-03-21T20:28:15.806Z,5.95
2023-03-21T20:30:48.754Z,6.10
2023-03-21T20:33:17.737Z,6.15
2023-03-21T20:36:29.494Z,5.80
2023-03-21T20:38:35.554Z,5.63
2023-03-21T20:41:06.447Z,5.45
2023-03-21T20:46:23.427Z,5.45
2023-03-21T20:48:51.886Z,5.53
2023-03-21T20:54:09.647Z,6.15
2023-03-21T20:56:39.590Z,5.35
2023-03-21T20:59:17.692Z,6.30
2023-03-21T21:01:53.390Z,6.00
2023-03-21T21:04:23.123Z,5.38
2023-03-21T21:06:55.807Z,5.68
2023-03-21T21:09:24.410Z,6.25
2023-03-21T21:12:10.763Z,6.05
2023-03-21T21:14:39.754Z,6.53
2023-03-21T21:17:24.427Z,5.97
2023-03-21T21:19:57.014Z,6.32
2023-03-21T21:22:25.910Z,5.35
2023-03-21T21:24:54.368Z,6.93
2023-03-21T21:27:25.099Z,6.13
2023-03-21T21:29:53.542Z,5.97
2023-03-21T21:32:21.968Z,6.22
2023-03-21T21:34:50.500Z,6.57
2023-03-21T21:37:19.011Z,5.82
2023-03-21T21:39:47.879Z,6.05
2023-03-21T21:42:16.994Z,6.22
2023-03-21T21:44:47.413Z,6.85
2023-03-21T21:47:16.369Z,5.70
2023-03-21T21:49:45.959Z,5.93
2023-03-21T21:52:14.434Z,6.15
2023-03-21T21:54:45.975Z,5.47
2023-03-21T21:57:19.072Z,5.88
2023-03-21T21:59:54.125Z,6.10
2023-03-21T22:02:25.766Z,5.80
2023-03-21T22:04:57.088Z,5.95
2023-03-21T22:07:28.349Z,5.10
2023-03-21T22:09:57.861Z,5.32
2023-03-21T22:12:26.848Z,5.38
2023-03-21T22:14:56.999Z,4.88
2023-03-21T22:17:25.600Z,5.55
2023-03-21T22:20:04.999Z,4.90
2023-03-21T22:22:35.416Z,4.90
2023-03-21T22:25:04.363Z,4.63
2023-03-21T22:27:32.794Z,4.63
2023-03-21T22:30:05.713Z,5.00
2023-03-21T22:32:34.329Z,4.55
2023-03-21T22:35:03.475Z,4.45
2023-03-21T22:37:32.066Z,5.22
2023-03-21T22:40:00.797Z,4.88
2023-03-21T22:42:29.687Z,4.45
2023-03-21T22:44:58.566Z,4.45
2023-03-21T22:47:28.566Z,4.20
2023-03-21T22:49:57.539Z,4.45
2023-03-21T22:52:26.467Z,4.22
2023-03-21T22:54:54.888Z,4.22
2023-03-21T22:57:23.461Z,4.95
2023-03-21T22:59:52.139Z,5.00
2023-03-21T23:02:20.861Z,4.55
2023-03-21T23:04:50.659Z,4.65
2023-03-21T23:07:19.116Z,5.00
2023-03-21T23:09:47.632Z,4.82
2023-03-21T23:12:16.859Z,4.93
2023-03-21T23:14:45.264Z,5.32
2023-03-21T23:17:13.742Z,5.45
2023-03-21T23:19:42.143Z,5.13
2023-03-21T23:22:11.978Z,5.22
2023-03-21T23:24:40.415Z,5.35
2023-03-21T23:27:08.900Z,5.28
2023-03-21T23:29:37.330Z,5.18
2023-03-21T23:32:06.238Z,5.35
2023-03-21T23:34:35.347Z,5.00
2023-03-21T23:37:03.823Z,5.13
2023-03-21T23:39:34.543Z,5.25
2023-03-21T23:42:03.196Z,5.55
2023-03-21T23:44:31.660Z,5.35
2023-03-21T23:47:00.462Z,5.53
2023-03-21T23:49:28.961Z,5.47
2023-03-21T23:51:57.543Z,5.20
2023-03-21T23:54:25.957Z,5.25
2023-03-21T23:56:55.894Z,5.53
2023-03-21T23:59:24.551Z,5.88
